createdAt,value
2022-10-22T00:03:57.802Z,8.60
2022-10-22T00:09:00.706Z,8.57
2022-10-22T00:14:03.686Z,8.59
2022-10-22T00:19:06.488Z,8.64
2022-10-22T00:24:09.192Z,8.70
2022-10-22T00:29:11.805Z,8.72
2022-10-22T00:34:14.482Z,8.70
2022-10-22T00:39:19.434Z,8.66
2022-10-22T00:44:59.560Z,8.66
2022-10-22T00:50:05.184Z,8.67
2022-10-22T00:55:08.683Z,8.65
2022-10-22T01:00:12.393Z,8.64
2022-10-22T01:05:15.412Z,8.58
2022-10-22T01:10:21.389Z,8.49
2022-10-22T01:15:38.413Z,8.48
2022-10-22T01:20:56.595Z,8.53
2022-10-22T01:26:30.408Z,8.52
2022-10-22T01:31:39.885Z,8.48
2022-10-22T01:36:43.993Z,8.45
2022-10-22T01:41:47.080Z,8.45
2022-10-22T01:46:54.832Z,8.47
2022-10-22T01:52:26.941Z,8.51
2022-10-22T01:57:42.536Z,8.54
2022-10-22T02:03:02.260Z,8.57
2022-10-22T02:08:10.903Z,8.57
2022-10-22T02:13:18.438Z,8.55
2022-10-22T02:18:26.102Z,8.54
2022-10-22T02:23:28.978Z,8.53
2022-10-22T02:28:48.191Z,8.52
2022-10-22T02:33:55.925Z,8.47
2022-10-22T02:38:59.285Z,8.44
2022-10-22T02:44:03.239Z,8.44
2022-10-22T02:49:05.939Z,8.46
2022-10-22T02:54:08.522Z,8.48
2022-10-22T02:59:11.437Z,8.48
2022-10-22T03:04:14.060Z,8.49
2022-10-22T03:09:20.049Z,8.52
2022-10-22T03:14:25.475Z,8.57
2022-10-22T03:19:28.099Z,8.57
2022-10-22T03:24:44.695Z,8.53
2022-10-22T03:29:49.626Z,8.49
2022-10-22T03:34:52.373Z,8.51
2022-10-22T03:39:55.854Z,8.56
2022-10-22T03:44:58.451Z,8.59
2022-10-22T03:50:01.057Z,8.56
2022-10-22T03:55:04.964Z,8.52
2022-10-22T04:00:09.030Z,8.51
2022-10-22T04:05:11.744Z,8.54
2022-10-22T04:10:14.512Z,8.57
2022-10-22T04:15:17.545Z,8.57
2022-10-22T04:20:20.219Z,8.57
2022-10-22T04:25:22.817Z,8.59
2022-10-22T04:30:25.461Z,8.64
2022-10-22T04:35:28.494Z,8.70
2022-10-22T04:40:31.319Z,8.75
2022-10-22T04:45:35.014Z,8.76
2022-10-22T04:50:37.742Z,8.78
2022-10-22T04:55:40.350Z,8.80
2022-10-22T05:00:43.050Z,8.82
2022-10-22T05:05:45.838Z,8.80
2022-10-22T05:10:48.428Z,8.79
2022-10-22T05:15:51.016Z,8.78
2022-10-22T05:20:53.618Z,8.83
2022-10-22T05:25:56.603Z,8.89
2022-10-22T05:31:00.542Z,8.91
2022-10-22T05:36:05.700Z,8.89
2022-10-22T05:41:12.739Z,8.86
2022-10-22T05:46:22.165Z,8.87
2022-10-22T05:51:28.087Z,8.92
2022-10-22T05:56:32.204Z,8.95
2022-10-22T06:01:35.704Z,8.95
2022-10-22T06:06:42.879Z,8.97
2022-10-22T06:11:46.552Z,9.06
2022-10-22T06:16:50.534Z,9.16
2022-10-22T06:21:53.556Z,9.17
2022-10-22T06:26:56.553Z,9.15
2022-10-22T06:31:59.151Z,9.19
2022-10-22T06:37:01.859Z,9.27
2022-10-22T06:42:04.659Z,9.38
2022-10-22T06:47:07.295Z,9.53
2022-10-22T06:52:09.946Z,9.65
2022-10-22T06:57:12.745Z,9.72
2022-10-22T07:02:15.556Z,9.76
2022-10-22T07:07:18.323Z,9.76
2022-10-22T07:12:20.941Z,9.79
2022-10-22T07:17:23.538Z,9.84
2022-10-22T07:22:26.838Z,9.95
2022-10-22T07:27:29.566Z,10.04
2022-10-22T07:32:32.183Z,10.10
2022-10-22T07:37:34.859Z,10.14
2022-10-22T07:42:37.662Z,10.18
2022-10-22T07:47:40.534Z,10.23
2022-10-22T07:52:44.552Z,10.31
2022-10-22T07:57:47.294Z,10.39
2022-10-22T08:02:49.990Z,10.45
2022-10-22T08:07:52.633Z,10.47
2022-10-22T08:12:55.377Z,10.55
2022-10-22T08:17:58.071Z,10.57
2022-10-22T08:23:00.917Z,10.57
2022-10-22T08:28:03.740Z,10.56
2022-10-22T08:33:06.419Z,10.54
2022-10-22T08:38:09.407Z,10.54
2022-10-22T08:43:24.044Z,10.54
2022-10-22T08:48:45.819Z,10.52
2022-10-22T08:53:53.736Z,10.52
2022-10-22T08:59:04.365Z,10.52
2022-10-22T09:04:17.986Z,10.51
2022-10-22T09:09:21.552Z,10.51
2022-10-22T09:14:25.565Z,10.54
2022-10-22T09:19:40.308Z,10.60
2022-10-22T09:24:48.776Z,10.72
2022-10-22T09:29:51.414Z,10.84
2022-10-22T09:34:58.344Z,10.86
2022-10-22T09:40:05.510Z,10.86
2022-10-22T09:45:18.149Z,10.83
2022-10-22T09:50:44.332Z,10.87
2022-10-22T09:55:53.110Z,10.96
2022-10-22T10:00:58.529Z,11.07
2022-10-22T10:06:05.854Z,11.15
2022-10-22T10:11:13.448Z,11.18
2022-10-22T10:16:26.393Z,11.20
2022-10-22T10:22:02.546Z,11.21
2022-10-22T10:27:28.311Z,11.27
2022-10-22T10:32:37.226Z,11.35
2022-10-22T10:37:47.202Z,11.37
2022-10-22T10:42:58.095Z,11.43
2022-10-22T10:48:10.133Z,11.49
2022-10-22T10:53:27.887Z,11.53
2022-10-22T10:58:36.450Z,11.50
2022-10-22T11:03:44.883Z,11.48
2022-10-22T11:08:56.404Z,11.47
2022-10-22T11:14:11.640Z,11.44
2022-10-22T11:19:51.003Z,11.49
2022-10-22T11:25:03.204Z,11.53
2022-10-22T11:30:13.490Z,11.58
2022-10-22T11:35:25.684Z,11.66
2022-10-22T11:40:28.725Z,11.75
2022-10-22T11:45:38.405Z,11.76
2022-10-22T11:50:50.928Z,11.74
2022-10-22T11:55:56.269Z,11.71
2022-10-22T12:01:02.165Z,11.71
2022-10-22T12:06:15.803Z,11.72
2022-10-22T12:11:36.352Z,11.72
2022-10-22T12:16:55.818Z,11.74
2022-10-22T12:22:13.069Z,11.75
2022-10-22T12:27:23.575Z,11.75
2022-10-22T12:32:35.291Z,11.76
2022-10-22T12:37:38.686Z,11.82
2022-10-22T12:42:48.428Z,11.82
2022-10-22T12:47:55.913Z,11.83
2022-10-22T12:52:59.042Z,11.86
2022-10-22T12:58:06.468Z,11.90
2022-10-22T13:03:46.039Z,11.95
2022-10-22T13:09:06.582Z,11.97
2022-10-22T13:14:21.629Z,11.96
2022-10-22T13:19:41.756Z,11.98
2022-10-22T13:24:51.363Z,12.02
2022-10-22T13:29:56.138Z,12.04
2022-10-22T13:35:01.440Z,12.05
2022-10-22T13:40:12.181Z,12.08
2022-10-22T13:45:15.190Z,12.09
2022-10-22T13:50:19.776Z,12.10
2022-10-22T13:55:25.833Z,12.10
2022-10-22T14:00:28.602Z,12.15
2022-10-22T14:05:32.668Z,12.14
2022-10-22T14:10:35.666Z,12.16
2022-10-22T14:15:39.055Z,12.19
2022-10-22T14:20:42.479Z,12.23
2022-10-22T14:25:45.443Z,12.28
2022-10-22T14:30:48.406Z,12.35
2022-10-22T14:35:51.711Z,12.36
2022-10-22T14:40:54.894Z,12.35
2022-10-22T14:45:57.912Z,12.34
2022-10-22T14:51:00.532Z,12.33
2022-10-22T14:56:03.439Z,12.30
2022-10-22T15:01:06.589Z,12.28
2022-10-22T15:06:09.344Z,12.28
2022-10-22T15:11:12.817Z,12.31
2022-10-22T15:16:16.674Z,12.31
2022-10-22T15:21:23.302Z,12.31
2022-10-22T15:26:25.804Z,12.32
2022-10-22T15:31:47.123Z,12.34
2022-10-22T15:36:50.361Z,12.35
2022-10-22T15:41:54.544Z,12.36
2022-10-22T15:46:58.407Z,12.37
2022-10-22T15:52:01.486Z,12.37
2022-10-22T15:57:08.625Z,12.37
2022-10-22T16:02:11.800Z,12.42
2022-10-22T16:07:14.462Z,12.47
2022-10-22T16:12:17.415Z,12.51
2022-10-22T16:17:20.305Z,12.51
2022-10-22T16:22:22.954Z,12.56
2022-10-22T16:27:25.702Z,12.59
2022-10-22T16:32:28.406Z,12.59
2022-10-22T16:37:31.612Z,12.59
2022-10-22T16:42:34.311Z,12.61
2022-10-22T16:47:37.521Z,12.63
2022-10-22T16:52:40.221Z,12.63
2022-10-22T16:57:43.154Z,12.64
2022-10-22T17:02:52.073Z,12.64
2022-10-22T17:07:54.767Z,12.67
2022-10-22T17:12:57.421Z,12.69
2022-10-22T17:18:00.883Z,12.67
2022-10-22T17:23:03.526Z,12.66
2022-10-22T17:28:06.154Z,12.67
2022-10-22T17:33:09.316Z,12.69
2022-10-22T17:38:13.098Z,12.70
2022-10-22T17:43:15.809Z,12.70
2022-10-22T17:48:18.432Z,12.71
2022-10-22T17:53:21.051Z,12.76
2022-10-22T17:58:23.727Z,12.83
2022-10-22T18:03:27.983Z,12.84
2022-10-22T18:08:30.780Z,12.83
2022-10-22T18:13:33.428Z,12.82
2022-10-22T18:18:36.551Z,12.84
2022-10-22T18:23:39.193Z,12.85
2022-10-22T18:28:41.843Z,12.85
2022-10-22T18:33:44.576Z,12.82
2022-10-22T18:38:51.702Z,12.83
2022-10-22T18:44:00.076Z,12.85
2022-10-22T18:49:02.732Z,12.84
2022-10-22T18:54:21.684Z,12.82
2022-10-22T18:59:27.000Z,12.84
2022-10-22T19:04:36.836Z,12.87
2022-10-22T19:09:41.050Z,12.89
2022-10-22T19:14:43.702Z,12.89
2022-10-22T19:19:46.359Z,12.88
2022-10-22T19:24:49.851Z,12.91
2022-10-22T19:29:52.488Z,12.92
2022-10-22T19:34:55.140Z,12.91
2022-10-22T19:39:57.748Z,12.89
2022-10-22T19:45:00.351Z,12.88
2022-10-22T19:50:03.115Z,12.89
2022-10-22T19:55:05.918Z,12.89
2022-10-22T20:00:09.464Z,12.89
2022-10-22T20:05:12.311Z,12.89
2022-10-22T20:10:15.140Z,12.89
2022-10-22T20:15:18.757Z,12.88
2022-10-22T20:20:26.209Z,12.90
2022-10-22T20:25:29.365Z,12.92
2022-10-22T20:30:32.076Z,12.96
2022-10-22T20:35:36.103Z,12.97
2022-10-22T20:40:38.845Z,12.98
2022-10-22T20:45:41.442Z,12.98
2022-10-22T20:50:44.202Z,13.01
2022-10-22T20:55:48.158Z,13.04
2022-10-22T21:00:51.510Z,13.05
2022-10-22T21:05:54.236Z,13.08
2022-10-22T21:10:56.947Z,13.09
2022-10-22T21:15:59.876Z,13.09
2022-10-22T21:21:05.499Z,13.09
2022-10-22T21:26:08.151Z,13.08
2022-10-22T21:31:18.799Z,13.08
2022-10-22T21:36:23.582Z,13.08
2022-10-22T21:41:26.452Z,13.10
2022-10-22T21:46:29.763Z,13.14
2022-10-22T21:51:35.215Z,13.17
2022-10-22T21:56:38.031Z,13.18
2022-10-22T22:01:41.200Z,13.19
2022-10-22T22:06:43.900Z,13.21
2022-10-22T22:11:46.587Z,13.18
2022-10-22T22:16:49.236Z,13.18
2022-10-22T22:21:52.963Z,13.19
2022-10-22T22:26:55.641Z,13.21
2022-10-22T22:31:58.351Z,13.23
2022-10-22T22:37:01.051Z,13.21
2022-10-22T22:42:04.058Z,13.21
2022-10-22T22:47:06.756Z,13.24
2022-10-22T22:52:09.885Z,13.21
2022-10-22T22:57:14.512Z,13.19
2022-10-22T23:02:17.206Z,13.20
2022-10-22T23:07:19.908Z,13.24
2022-10-22T23:12:22.720Z,13.23
2022-10-22T23:17:25.443Z,13.20
2022-10-22T23:22:28.179Z,13.21
2022-10-22T23:27:30.802Z,13.19
2022-10-22T23:32:33.421Z,13.16
2022-10-22T23:37:36.083Z,13.13
2022-10-22T23:47:46.208Z,13.11
2022-10-22T23:52:48.904Z,13.13
2022-10-22T23:57:51.602Z,13.12
